Accueil
METAR-TAF:

METAR-TAF

Aéroports :

Aéroport régional Les Éplatures

La Chaux-de-Fonds, Suisse

latitude: 47-05-03N, longitude: 006-47-37E, altitude: 1027 m

Observation

Le bulletin a été fait il y a 27 minutes, à 10:50 UTC
Vent 6 kt de nord, variant entre ouest/nord-ouest et est
Température 6°C
Humidité 56%
Pression 1016 hPa
Visibilité 10 km ou plus
pas de nuages en-dessous de 1500 mètres et pas de cumulonimbus.

METAR: LSGC 031050Z 01006KT 300V080 CAVOK 06/M02 Q1016

Heure: 13:17 (11:17 UTC)

Prévision

Le bulletin a été fait il y a 2 heures et 52 minutes, à 08:25 UTC
Prévision valable du 03 à 09 UTC au 03 à 18 UTC
Vent 3 kt de direction variable
Visibilité 10 km ou plus
pas de nuages en-dessous de 1500 mètres et pas de cumulonimbus.
Evoluant progressivement
du 03 à 10 UTC au 03 à 12 UTC
Visibilité 10 km ou plus
Quelques nuages à une hauteur de 4000 ft

TAF: LSGC 030825Z 0309/0318 VRB03KT CAVOK BECMG 0310/0312 9999 FEW040

Observations et prévisions météorologiques de plus de 4000 aéroports (messages METAR et TAF).

Les stations disponibles sont représentées par des disques jaunes et rouges sur la carte.

Passer la souris dessus pour voir le nom de la station.

Cliquer dessus pour voir les observations et prévisions météorologiques.

Pour changer de carte: cliquez sur les boutons verts avec une croix noire pour zoomer, sur le bouton vert avec un tiret pour effectuer un zoom arrière, ou sur les flèches vertes pour les cartes adjacentes.


METAR-TAF: